createdAt,value
2022-08-07T00:00:28.026Z,99900.44
2022-08-07T00:03:09.407Z,99907.19
2022-08-07T00:05:38.082Z,99904.72
2022-08-07T00:08:07.816Z,99913.28
2022-08-07T00:10:47.973Z,99914.81
2022-08-07T00:13:25.750Z,99917.88
2022-08-07T00:15:55.261Z,99909.59
2022-08-07T00:18:28.526Z,99917.88
2022-08-07T00:21:07.970Z,99920.63
2022-08-07T00:23:40.174Z,99923.72
2022-08-07T00:26:18.723Z,99918.38
2022-08-07T00:28:59.378Z,99923.56
2022-08-07T00:31:38.427Z,99932.59
2022-08-07T00:34:09.942Z,99917.63
2022-08-07T00:36:42.689Z,99923.13
2022-08-07T00:39:16.486Z,99915.47
2022-08-07T00:42:01.988Z,99923.41
2022-08-07T00:44:38.354Z,99928.19
2022-08-07T00:47:16.185Z,99921.47
2022-08-07T00:50:19.653Z,99920.13
2022-08-07T00:52:47.405Z,99924.84
2022-08-07T00:55:17.381Z,99934.50
2022-08-07T00:57:55.917Z,99929.28
2022-08-07T01:00:24.913Z,99926.97
2022-08-07T01:02:53.829Z,99941.50
2022-08-07T01:05:24.686Z,99944.84
2022-08-07T01:07:52.716Z,99944.72
2022-08-07T01:10:23.374Z,99942.25
2022-08-07T01:12:54.717Z,99951.72
2022-08-07T01:16:01.284Z,99944.88
2022-08-07T01:18:17.088Z,99950.38
2022-08-07T01:20:59.437Z,99954.31
2022-08-07T01:23:36.853Z,99963.19
2022-08-07T01:26:16.751Z,99962.59
2022-08-07T01:28:50.553Z,99968.94
2022-08-07T01:31:42.340Z,99972.50
2022-08-07T01:34:14.340Z,99980.75
2022-08-07T01:36:44.095Z,99973.44
2022-08-07T01:39:18.455Z,99970.75
2022-08-07T01:42:36.742Z,99964.97
2022-08-07T01:44:43.037Z,99969.75
2022-08-07T01:48:16.835Z,99969.44
2022-08-07T01:50:06.282Z,99972.03
2022-08-07T01:52:34.717Z,99982.91
2022-08-07T01:55:04.708Z,99989.63
2022-08-07T01:58:05.728Z,99992.81
2022-08-07T02:00:32.031Z,99994.63
2022-08-07T02:03:19.222Z,100012.34
2022-08-07T02:06:02.559Z,100000.41
2022-08-07T02:08:54.361Z,100005.91
2022-08-07T02:11:31.011Z,100005.16
2022-08-07T02:14:40.432Z,100009.56
2022-08-07T02:17:06.069Z,100008.63
2022-08-07T02:20:04.739Z,100009.38
2022-08-07T02:22:26.200Z,100013.22
2022-08-07T02:24:57.663Z,100009.56
2022-08-07T02:27:30.152Z,100015.06
2022-08-07T02:30:07.361Z,100020.56
2022-08-07T02:32:38.699Z,100010.03
2022-08-07T02:35:11.511Z,100019.03
2022-08-07T02:37:51.249Z,100007.72
2022-08-07T02:40:34.965Z,100019.47
2022-08-07T02:43:07.802Z,100024.00
2022-08-07T02:46:00.219Z,100029.16
2022-08-07T02:48:32.313Z,100027.00
2022-08-07T02:51:41.948Z,100025.91
2022-08-07T02:54:09.330Z,100030.91
2022-08-07T02:56:40.837Z,100025.69
2022-08-07T02:59:14.964Z,100025.44
2022-08-07T03:01:47.197Z,100027.38
2022-08-07T03:04:23.181Z,100028.63
2022-08-07T03:06:54.013Z,100027.44
2022-08-07T03:09:44.697Z,100033.16
2022-08-07T03:12:21.638Z,100042.72
2022-08-07T03:14:52.686Z,100036.94
2022-08-07T03:17:22.173Z,100038.81
2022-08-07T03:19:55.639Z,100022.47
2022-08-07T03:22:30.399Z,100023.13
2022-08-07T03:25:00.847Z,100015.56
2022-08-07T03:27:59.745Z,100027.41
2022-08-07T03:30:24.896Z,100033.00
2022-08-07T03:32:58.655Z,100040.91
2022-08-07T03:35:43.727Z,100045.72
2022-08-07T03:38:21.048Z,100047.72
2022-08-07T03:40:57.052Z,100046.97
2022-08-07T03:43:32.414Z,100042.66
2022-08-07T03:46:10.498Z,100050.25
2022-08-07T03:49:03.005Z,100052.94
2022-08-07T03:52:00.945Z,100060.19
2022-08-07T03:54:35.445Z,100059.63
2022-08-07T03:58:32.409Z,100057.97
2022-08-07T04:00:11.525Z,100061.66
2022-08-07T04:02:51.972Z,100063.72
2022-08-07T04:05:40.901Z,100074.38
2022-08-07T04:08:18.711Z,100082.94
2022-08-07T04:10:54.832Z,100078.56
2022-08-07T04:14:10.248Z,100088.28
2022-08-07T04:16:31.473Z,100084.34
2022-08-07T04:19:15.009Z,100097.09
2022-08-07T04:22:05.373Z,100102.03
2022-08-07T04:24:41.816Z,100108.72
2022-08-07T04:27:15.224Z,100112.63
2022-08-07T04:30:02.152Z,100113.44
2022-08-07T04:33:09.409Z,100110.25
2022-08-07T04:35:40.756Z,100105.53
2022-08-07T04:38:15.631Z,100116.28
2022-08-07T04:40:52.439Z,100110.13
2022-08-07T04:44:09.965Z,100112.03
2022-08-07T04:47:04.261Z,100114.53
2022-08-07T04:49:57.902Z,100125.94
2022-08-07T04:53:03.460Z,100123.31
2022-08-07T04:58:16.756Z,100121.56
2022-08-07T04:59:18.388Z,100123.75
2022-08-07T05:02:16.819Z,100134.91
2022-08-07T05:05:52.764Z,100137.03
2022-08-07T05:08:59.349Z,100137.34
2022-08-07T05:11:24.262Z,100141.88
2022-08-07T05:14:53.407Z,100144.94
2022-08-07T05:17:00.661Z,100144.06
2022-08-07T05:19:44.273Z,100139.28
2022-08-07T05:22:27.586Z,100146.22
2022-08-07T05:25:00.661Z,100143.28
2022-08-07T05:28:15.658Z,100147.16
2022-08-07T05:30:32.448Z,100149.88
2022-08-07T05:33:05.239Z,100147.81
2022-08-07T05:35:41.823Z,100153.78
2022-08-07T05:38:12.858Z,100156.63
2022-08-07T05:41:02.802Z,100162.03
2022-08-07T05:44:01.179Z,100157.31
2022-08-07T05:46:30.714Z,100170.78
2022-08-07T05:49:00.518Z,100170.88
2022-08-07T05:51:46.522Z,100176.84
2022-08-07T05:54:31.178Z,100176.84
2022-08-07T05:57:08.238Z,100187.91
2022-08-07T05:59:57.506Z,100189.97
2022-08-07T06:02:33.091Z,100205.22
2022-08-07T06:05:10.775Z,100194.84
2022-08-07T06:08:29.144Z,100199.59
2022-08-07T06:10:31.554Z,100197.31
2022-08-07T06:13:02.228Z,100209.84
2022-08-07T06:15:39.518Z,100195.16
2022-08-07T06:18:15.889Z,100205.47
2022-08-07T06:20:50.436Z,100215.88
2022-08-07T06:24:36.931Z,100216.84
2022-08-07T06:26:27.413Z,100213.56
2022-08-07T06:29:01.450Z,100220.47
2022-08-07T06:31:46.888Z,100221.00
2022-08-07T06:34:20.594Z,100212.91
2022-08-07T06:36:52.128Z,100209.41
2022-08-07T06:40:18.023Z,100219.66
2022-08-07T06:42:37.278Z,100227.47
2022-08-07T06:45:19.329Z,100224.72
2022-08-07T06:47:58.838Z,100216.41
2022-08-07T06:50:36.460Z,100217.84
2022-08-07T06:54:11.757Z,100215.63
2022-08-07T06:56:01.414Z,100224.19
2022-08-07T06:58:36.486Z,100215.41
2022-08-07T07:01:14.301Z,100208.50
2022-08-07T07:03:49.879Z,100215.31
2022-08-07T07:06:26.431Z,100219.25
2022-08-07T07:08:56.844Z,100222.75
2022-08-07T07:12:09.131Z,100214.75
2022-08-07T07:14:16.496Z,100234.06
2022-08-07T07:16:50.554Z,100229.56
2022-08-07T07:19:57.358Z,100225.41
2022-08-07T07:22:36.380Z,100231.97
2022-08-07T07:26:35.138Z,100236.91
2022-08-07T07:28:29.779Z,100240.00
2022-08-07T07:31:23.784Z,100229.66
2022-08-07T07:33:59.038Z,100237.59
2022-08-07T07:36:32.170Z,100237.25
2022-08-07T07:39:02.653Z,100242.53
2022-08-07T07:41:50.688Z,100230.84
2022-08-07T07:44:27.713Z,100246.50
2022-08-07T07:47:11.920Z,100234.50
2022-08-07T07:50:33.755Z,100241.75
2022-08-07T07:52:36.147Z,100242.81
2022-08-07T07:55:06.381Z,100245.13
2022-08-07T07:57:51.901Z,100245.25
2022-08-07T08:00:29.675Z,100238.19
2022-08-07T08:03:16.579Z,100238.88
2022-08-07T08:05:55.163Z,100250.94
2022-08-07T08:08:36.974Z,100243.13
2022-08-07T08:11:16.236Z,100249.97
2022-08-07T08:13:53.848Z,100242.72
2022-08-07T08:16:35.261Z,100242.53
2022-08-07T08:19:17.769Z,100249.31
2022-08-07T08:22:15.944Z,100258.00
2022-08-07T08:25:24.746Z,100257.78
2022-08-07T08:28:03.732Z,100256.34
2022-08-07T08:30:34.630Z,100275.16
2022-08-07T08:33:10.383Z,100265.25
2022-08-07T08:35:49.657Z,100265.22
2022-08-07T08:38:25.892Z,100259.22
2022-08-07T08:41:58.262Z,100268.00
2022-08-07T08:44:58.211Z,100273.72
2022-08-07T08:47:47.206Z,100268.22
2022-08-07T08:50:39.958Z,100269.75
2022-08-07T08:53:35.105Z,100266.34
2022-08-07T08:56:30.795Z,100276.31
2022-08-07T08:59:23.962Z,100274.97
2022-08-07T09:02:14.834Z,100269.47
2022-08-07T09:05:14.687Z,100266.34
2022-08-07T09:08:24.413Z,100272.75
2022-08-07T09:11:24.351Z,100258.91
2022-08-07T09:14:30.437Z,100276.94
2022-08-07T09:17:58.957Z,100267.03
2022-08-07T09:21:13.952Z,100268.25
2022-08-07T09:24:58.566Z,100268.53
2022-08-07T09:27:59.641Z,100260.59
2022-08-07T09:33:59.678Z,100254.69
2022-08-07T09:36:51.597Z,100254.28
2022-08-07T09:39:53.867Z,100255.53
2022-08-07T09:42:51.587Z,100262.88
2022-08-07T09:47:24.151Z,100261.94
2022-08-07T09:50:01.949Z,100264.78
2022-08-07T09:52:16.462Z,100248.91
2022-08-07T09:55:16.975Z,100251.97
2022-08-07T09:58:32.168Z,100257.22
2022-08-07T10:01:53.774Z,100247.78
2022-08-07T10:04:45.906Z,100245.31
2022-08-07T10:07:52.611Z,100245.50
2022-08-07T10:11:59.657Z,100235.88
2022-08-07T10:14:04.200Z,100231.88
2022-08-07T10:16:41.766Z,100244.72
2022-08-07T10:19:41.093Z,100228.97
2022-08-07T10:22:56.042Z,100223.34
2022-08-07T10:26:00.610Z,100237.19
2022-08-07T10:29:02.902Z,100221.88
2022-08-07T10:32:37.100Z,100224.38
2022-08-07T10:35:25.729Z,100219.13
2022-08-07T10:38:48.660Z,100215.00
2022-08-07T10:41:51.839Z,100217.31
2022-08-07T10:44:51.876Z,100220.69
2022-08-07T10:48:03.351Z,100216.72
2022-08-07T10:50:31.355Z,100204.47
2022-08-07T10:53:43.907Z,100197.41
2022-08-07T10:56:49.387Z,100191.75
2022-08-07T10:59:38.422Z,100189.88
2022-08-07T11:02:33.074Z,100184.81
2022-08-07T11:05:49.245Z,100191.25
2022-08-07T11:08:52.989Z,100182.34
2022-08-07T11:11:37.575Z,100183.38
2022-08-07T11:14:46.299Z,100190.84
2022-08-07T11:17:23.184Z,100184.69
2022-08-07T11:20:31.268Z,100198.13
2022-08-07T11:23:07.299Z,100177.88
2022-08-07T11:25:50.158Z,100175.41
2022-08-07T11:28:34.253Z,100174.03
2022-08-07T11:31:35.052Z,100160.69
2022-08-07T11:34:28.838Z,100171.09
2022-08-07T11:38:09.984Z,100159.00
2022-08-07T11:40:56.527Z,100151.59
2022-08-07T11:43:41.183Z,100151.44
2022-08-07T11:47:10.006Z,100154.41
2022-08-07T11:50:31.509Z,100148.53
2022-08-07T11:53:27.951Z,100159.56
2022-08-07T11:56:28.380Z,100139.03
2022-08-07T12:00:08.047Z,100153.34
2022-08-07T12:02:57.819Z,100134.38
2022-08-07T12:05:58.347Z,100145.38
2022-08-07T12:08:52.532Z,100151.44
2022-08-07T12:11:32.777Z,100143.03
2022-08-07T12:14:20.747Z,100138.84
2022-08-07T12:17:08.734Z,100133.31
2022-08-07T12:20:30.677Z,100139.69
2022-08-07T12:23:37.221Z,100136.31
2022-08-07T12:26:47.007Z,100127.66
2022-08-07T12:29:38.235Z,100131.28
2022-08-07T12:32:38.128Z,100126.31
2022-08-07T12:35:12.558Z,100118.50
2022-08-07T12:38:09.450Z,100119.75
2022-08-07T12:40:50.866Z,100122.97
2022-08-07T12:44:03.769Z,100122.81
2022-08-07T12:46:54.557Z,100119.28
2022-08-07T12:50:04.660Z,100120.09
2022-08-07T12:53:05.261Z,100110.50
2022-08-07T12:56:10.111Z,100103.81
2022-08-07T12:58:46.876Z,100101.19
2022-08-07T13:01:42.980Z,100097.34
2022-08-07T13:05:01.124Z,100090.63
2022-08-07T13:08:19.295Z,100106.91
2022-08-07T13:11:18.342Z,100086.91
2022-08-07T13:14:31.921Z,100080.66
2022-08-07T13:17:13.208Z,100090.25
2022-08-07T13:20:16.019Z,100079.75
2022-08-07T13:22:57.599Z,100078.06
2022-08-07T13:25:39.272Z,100073.81
2022-08-07T13:28:30.034Z,100062.69
2022-08-07T13:31:19.580Z,100070.53
2022-08-07T13:34:35.453Z,100072.28
2022-08-07T13:37:20.315Z,100065.50
2022-08-07T13:40:35.913Z,100064.50
2022-08-07T13:43:15.039Z,100064.53
2022-08-07T13:46:11.977Z,100063.78
2022-08-07T13:48:39.727Z,100061.75
2022-08-07T13:51:28.553Z,100052.16
2022-08-07T13:54:02.012Z,100060.25
2022-08-07T13:56:41.219Z,100057.75
2022-08-07T13:59:32.877Z,100040.31
2022-08-07T14:02:12.966Z,100042.19
2022-08-07T14:04:54.717Z,100045.50
2022-08-07T14:07:33.924Z,100036.16
2022-08-07T14:10:17.808Z,100042.97
2022-08-07T14:13:00.791Z,100050.84
2022-08-07T14:15:44.593Z,100036.69
2022-08-07T14:18:44.958Z,100036.19
2022-08-07T14:22:01.771Z,100036.44
2022-08-07T14:24:33.431Z,100038.47
2022-08-07T14:28:09.507Z,100034.16
2022-08-07T14:30:05.596Z,100034.16
2022-08-07T14:32:48.146Z,100016.47
2022-08-07T14:35:44.499Z,100017.22
2022-08-07T14:38:26.509Z,100015.44
2022-08-07T14:41:04.122Z,100014.41
2022-08-07T14:43:58.525Z,100008.84
2022-08-07T14:46:31.987Z,100004.78
2022-08-07T14:49:56.003Z,100003.69
2022-08-07T14:52:04.700Z,100002.88
2022-08-07T14:54:42.008Z,100003.50
2022-08-07T14:57:14.463Z,100002.44
2022-08-07T15:00:04.396Z,100002.13
2022-08-07T15:02:39.194Z,99995.16
2022-08-07T15:07:59.112Z,99995.84
2022-08-07T15:13:25.392Z,99997.59
2022-08-07T15:16:02.744Z,99993.41
2022-08-07T15:18:41.580Z,99970.44
2022-08-07T15:21:54.067Z,99988.13
2022-08-07T15:25:14.054Z,99985.84
2022-08-07T15:27:23.103Z,99980.59
2022-08-07T15:30:09.274Z,99990.06
2022-08-07T15:33:01.202Z,99980.41
2022-08-07T15:35:40.719Z,99974.06
2022-08-07T15:38:51.697Z,99973.81
2022-08-07T15:44:18.146Z,99972.50
2022-08-07T15:46:55.884Z,99976.16
2022-08-07T15:50:04.362Z,99972.59
2022-08-07T15:52:30.297Z,99969.22
2022-08-07T15:55:03.827Z,99969.13
2022-08-07T15:57:47.893Z,99958.81
2022-08-07T16:00:31.580Z,99966.59
2022-08-07T16:03:21.653Z,99961.63
2022-08-07T16:06:09.591Z,99955.59
2022-08-07T16:08:45.606Z,99958.53
2022-08-07T16:11:39.892Z,99948.91
2022-08-07T16:14:30.319Z,99942.03
2022-08-07T16:18:01.697Z,99948.16
2022-08-07T16:22:03.061Z,99942.25
2022-08-07T16:24:34.394Z,99944.38
2022-08-07T16:27:40.663Z,99941.97
2022-08-07T16:30:32.005Z,99947.41
2022-08-07T16:34:03.323Z,99953.44
2022-08-07T16:36:31.446Z,99954.28
2022-08-07T16:39:40.357Z,99952.72
2022-08-07T16:42:25.321Z,99968.50
2022-08-07T16:45:15.634Z,99957.41
2022-08-07T16:48:27.840Z,99956.44
2022-08-07T16:51:54.668Z,99969.59
2022-08-07T16:55:08.223Z,99960.53
2022-08-07T16:58:19.178Z,99961.84
2022-08-07T17:01:41.246Z,99961.28
2022-08-07T17:04:24.730Z,99972.88
2022-08-07T17:07:18.650Z,99978.75
2022-08-07T17:10:09.191Z,99981.63
2022-08-07T17:13:41.629Z,99978.41
2022-08-07T17:16:22.117Z,99973.41
2022-08-07T17:18:53.615Z,99980.53
2022-08-07T17:21:51.321Z,99977.53
2022-08-07T17:24:55.151Z,99973.69
2022-08-07T17:27:32.824Z,99970.84
2022-08-07T17:30:16.160Z,99969.75
2022-08-07T17:34:10.162Z,99975.16
2022-08-07T17:36:21.066Z,99970.41
2022-08-07T17:39:19.786Z,99971.75
2022-08-07T17:42:06.572Z,99962.03
2022-08-07T17:44:58.554Z,99964.16
2022-08-07T17:47:54.007Z,99973.06
2022-08-07T17:50:42.489Z,99976.91
2022-08-07T17:54:00.208Z,99972.91
2022-08-07T17:56:49.637Z,99975.75
2022-08-07T17:59:36.224Z,99970.31
2022-08-07T18:02:15.790Z,99980.00
2022-08-07T18:05:10.555Z,99974.50
2022-08-07T18:08:15.492Z,99984.16
2022-08-07T18:12:16.092Z,99984.41
2022-08-07T18:14:24.220Z,99985.78
2022-08-07T18:17:05.680Z,99995.69
2022-08-07T18:30:31.596Z,100004.94
2022-08-07T18:33:38.923Z,100005.03
2022-08-07T18:36:43.905Z,100002.94
2022-08-07T18:40:08.225Z,99997.88
2022-08-07T18:42:57.710Z,100005.88
2022-08-07T18:46:22.357Z,100002.16
2022-08-07T18:50:31.818Z,100001.41
2022-08-07T18:52:53.171Z,99999.88
2022-08-07T18:55:43.345Z,100013.94
2022-08-07T18:58:38.314Z,100005.94
2022-08-07T19:02:17.517Z,100022.06
2022-08-07T19:04:17.228Z,100016.44
2022-08-07T19:07:09.732Z,100013.34
2022-08-07T19:10:14.842Z,100019.44
2022-08-07T19:13:10.053Z,100028.38
2022-08-07T19:16:03.516Z,100022.63
2022-08-07T19:19:19.766Z,100031.28
2022-08-07T19:22:05.186Z,100026.63
2022-08-07T19:24:44.507Z,100023.78
2022-08-07T19:28:56.893Z,100027.94
2022-08-07T19:30:57.101Z,100025.31
2022-08-07T19:33:13.231Z,100028.13
2022-08-07T19:35:51.792Z,100035.34
2022-08-07T19:38:21.679Z,100033.38
2022-08-07T19:40:55.422Z,100035.59
2022-08-07T19:43:48.680Z,100033.31
2022-08-07T19:46:26.311Z,100039.28
2022-08-07T19:49:12.876Z,100043.91
2022-08-07T19:51:50.687Z,100046.38
2022-08-07T19:54:31.421Z,100050.47
2022-08-07T19:58:01.694Z,100050.81
2022-08-07T20:00:10.112Z,100055.28
2022-08-07T20:02:51.863Z,100059.53
2022-08-07T20:05:30.131Z,100057.41
2022-08-07T20:08:03.611Z,100060.97
2022-08-07T20:10:52.047Z,100063.56
2022-08-07T20:13:34.417Z,100064.13
2022-08-07T20:16:04.712Z,100068.72
2022-08-07T20:18:34.480Z,100064.72
2022-08-07T20:21:22.067Z,100067.81
2022-08-07T20:24:00.297Z,100065.97
2022-08-07T20:26:45.284Z,100053.41
2022-08-07T20:29:48.966Z,100061.09
2022-08-07T20:32:23.128Z,100068.28
2022-08-07T20:34:58.539Z,100077.00
2022-08-07T20:37:46.957Z,100080.09
2022-08-07T20:40:33.250Z,100082.53
2022-08-07T20:43:06.103Z,100081.00
2022-08-07T20:46:26.208Z,100086.69
2022-08-07T20:48:38.731Z,100087.47
2022-08-07T20:51:30.834Z,100088.22
2022-08-07T20:54:12.030Z,100077.69
2022-08-07T20:56:45.958Z,100088.72
2022-08-07T21:00:05.285Z,100074.03
2022-08-07T21:02:38.272Z,100084.44
2022-08-07T21:05:16.218Z,100084.88
2022-08-07T21:07:49.590Z,100084.72
2022-08-07T21:10:31.301Z,100086.69
2022-08-07T21:13:03.385Z,100094.31
2022-08-07T21:15:48.054Z,100104.28
2022-08-07T21:18:33.755Z,100101.69
2022-08-07T21:21:04.180Z,100098.59
2022-08-07T21:24:22.653Z,100100.91
2022-08-07T21:27:25.543Z,100097.53
2022-08-07T21:30:11.303Z,100109.31
2022-08-07T21:32:52.833Z,100109.44
2022-08-07T21:36:06.770Z,100104.84
2022-08-07T21:38:58.087Z,100104.25
2022-08-07T21:41:52.100Z,100093.81
2022-08-07T21:46:05.298Z,100099.91
2022-08-07T21:48:42.652Z,100084.00
2022-08-07T21:51:32.249Z,100097.59
2022-08-07T21:54:25.019Z,100092.41
2022-08-07T21:57:31.604Z,100091.59
2022-08-07T22:00:11.325Z,100093.28
2022-08-07T22:03:10.983Z,100100.47
2022-08-07T22:05:52.690Z,100095.25
2022-08-07T22:08:24.772Z,100097.69
2022-08-07T22:11:03.871Z,100099.97
2022-08-07T22:13:51.738Z,100098.44
2022-08-07T22:16:43.879Z,100108.84
2022-08-07T22:19:34.258Z,100108.03
2022-08-07T22:22:28.703Z,100113.25
2022-08-07T22:25:11.297Z,100105.75
2022-08-07T22:28:07.788Z,100110.47
2022-08-07T22:31:06.873Z,100107.34
2022-08-07T22:33:56.219Z,100111.81
2022-08-07T22:36:52.514Z,100110.28
2022-08-07T22:40:05.145Z,100109.38
2022-08-07T22:42:35.224Z,100122.53
2022-08-07T22:45:11.091Z,100122.53
2022-08-07T22:48:54.946Z,100108.63
2022-08-07T22:52:13.757Z,100112.53
2022-08-07T22:55:23.597Z,100117.06
2022-08-07T23:34:24.134Z,100109.06
2022-08-07T23:35:28.131Z,100129.06
2022-08-07T23:38:42.154Z,100114.88
2022-08-07T23:41:22.357Z,100109.38
2022-08-07T23:44:24.781Z,100121.16
2022-08-07T23:47:20.601Z,100120.38
2022-08-07T23:50:20.950Z,100108.75
2022-08-07T23:53:11.834Z,100120.94
2022-08-07T23:56:11.720Z,100127.03
